Time;durP1;ratioP1;P1;durP2;ratioP2;P2;SDS_P1;SDS_P2;PMS_P1;PMS_P2;Temp;Humidity;BMP_temperature;BMP_pressure;BME280_temperature;BME280_humidity;BME280_pressure;Samples;Min_cycle;Max_cycle;Signal;HPM_P1;HPM_P2
2023/04/02 00:01:21;;;;;;;;;;;;;;;5.84;100.00;95727.19;5034582;28;19945;-66
2023/04/02 00:03:58;;;;;;;;;;;;;;;5.79;100.00;95720.00;5033613;28;19962;-66
2023/04/02 00:06:39;;;;;;;;;;;;;;;5.77;100.00;95721.19;5033663;28;19947;-66
2023/04/02 00:09:13;;;;;;;;;;;;;;;5.73;100.00;95726.00;5034143;28;19953;-66
2023/04/02 00:11:41;;;;;;;;;;;;;;;5.71;100.00;95722.81;5033984;28;20299;-75
2023/04/02 00:14:21;;;;;;;;;;;;;;;5.67;100.00;95725.03;5033510;28;19953;-71
2023/04/02 00:16:47;;;;;;;;;;;;;;;5.65;100.00;95721.06;5033587;28;19960;-70
2023/04/02 00:19:25;;;;;;;;;;;;;;;5.62;100.00;95724.84;5033538;28;19945;-70
2023/04/02 00:21:52;;;;;;;;;;;;;;;5.63;100.00;95729.06;5034082;28;19946;-72
2023/04/02 00:24:19;;;;;;;;;;;;;;;5.60;100.00;95729.44;5033384;28;19966;-70
2023/04/02 00:26:47;;;;;;;;;;;;;;;5.61;100.00;95727.66;5033480;28;19939;-71
2023/04/02 00:29:14;;;;;;;;;;;;;;;5.58;100.00;95726.25;5033392;28;19948;-75
2023/04/02 00:31:41;;;;;;;;;;;;;;;5.59;100.00;95730.47;5015824;28;19947;-71
2023/04/02 00:34:13;;;;;;;;;;;;;;;5.58;100.00;95730.66;5033436;28;19955;-77
2023/04/02 00:36:40;;;;;;;;;;;;;;;5.56;100.00;95730.84;5033255;28;19967;-77
2023/04/02 00:39:11;;;;;;;;;;;;;;;5.54;100.00;95739.88;5033295;28;19939;-77
2023/04/02 00:41:37;;;;;;;;;;;;;;;5.53;100.00;95746.09;5033955;28;19953;-77
2023/04/02 00:44:04;;;;;;;;;;;;;;;5.51;100.00;95748.09;5033176;28;19983;-78
2023/04/02 00:46:45;;;;;;;;;;;;;;;5.50;100.00;95747.28;5033290;28;19946;-81
2023/04/02 00:49:16;;;;;;;;;;;;;;;5.51;100.00;95745.50;5033460;28;19938;-67
2023/04/02 00:51:45;;;;;;;;;;;;;;;5.52;100.00;95742.66;5033245;28;19944;-71
2023/04/02 00:54:15;;;;;;;;;;;;;;;5.53;100.00;95746.09;5033251;28;19935;-71
2023/04/02 00:56:45;;;;;;;;;;;;;;;5.51;100.00;95748.88;5019184;28;20430;-71
2023/04/02 00:59:19;;;;;;;;;;;;;;;5.51;100.00;95748.09;5036894;28;19939;-71
2023/04/02 01:01:52;;;;;;;;;;;;;;;5.54;100.00;95755.47;5036923;28;19943;-71
2023/04/02 01:04:27;;;;;;;;;;;;;;;5.55;100.00;95757.09;5037603;28;19963;-71
2023/04/02 01:06:53;;;;;;;;;;;;;;;5.54;100.00;95761.47;5036816;28;19948;-78
2023/04/02 01:09:23;;;;;;;;;;;;;;;5.54;100.00;95755.47;5037036;28;20402;-70
2023/04/02 01:12:08;;;;;;;;;;;;;;;5.55;100.00;95754.47;5036761;28;19945;-71
2023/04/02 01:14:47;;;;;;;;;;;;;;;5.56;100.00;95756.88;5036605;28;19948;-69
2023/04/02 01:17:37;;;;;;;;;;;;;;;5.59;100.00;95756.47;5036570;28;19969;-69
2023/04/02 01:20:21;;;;;;;;;;;;;;;5.59;100.00;95753.88;5036570;28;19939;-71
2023/04/02 01:22:47;;;;;;;;;;;;;;;5.60;100.00;95754.66;5037117;28;20427;-70
2023/04/02 01:25:21;;;;;;;;;;;;;;;5.61;100.00;95761.47;5036358;28;19969;-71
2023/04/02 01:27:53;;;;;;;;;;;;;;;5.63;100.00;95762.06;5036548;28;19954;-65
2023/04/02 01:30:19;;;;;;;;;;;;;;;5.62;100.00;95758.66;5037246;28;19943;-66
2023/04/02 01:32:46;;;;;;;;;;;;;;;5.64;100.00;95758.47;5036352;28;19941;-66
2023/04/02 01:35:12;;;;;;;;;;;;;;;5.65;100.00;95762.66;5036277;28;19945;-66
2023/04/02 01:37:48;;;;;;;;;;;;;;;5.67;100.00;95765.88;5036204;28;20328;-66
2023/04/02 01:40:26;;;;;;;;;;;;;;;5.69;100.00;95766.44;5036851;28;19938;-65
2023/04/02 01:42:51;;;;;;;;;;;;;;;5.69;100.00;95756.84;5036164;28;19960;-81
2023/04/02 01:45:20;;;;;;;;;;;;;;;5.72;100.00;95768.66;5036053;28;19965;-73
2023/04/02 01:47:47;;;;;;;;;;;;;;;5.74;100.00;95771.06;5036670;28;19941;-79
2023/04/02 01:50:21;;;;;;;;;;;;;;;5.75;100.00;95772.63;5035964;28;19949;-80
2023/04/02 01:52:48;;;;;;;;;;;;;;;5.77;100.00;95775.84;5036578;28;19954;-80
2023/04/02 01:55:17;;;;;;;;;;;;;;;5.78;100.00;95773.03;5035977;28;19970;-80
2023/04/02 01:57:46;;;;;;;;;;;;;;;5.77;100.00;95776.63;5035879;28;19948;-77
2023/04/02 02:00:13;;;;;;;;;;;;;;;5.78;100.00;95780.06;5035800;28;19939;-77
2023/04/02 02:02:40;;;;;;;;;;;;;;;5.79;100.00;95773.84;5035881;28;19942;-70
2023/04/02 02:05:13;;;;;;;;;;;;;;;5.80;100.00;95771.03;5036506;28;19963;-70
2023/04/02 02:07:40;;;;;;;;;;;;;;;5.83;100.00;95780.22;5034580;28;19958;-69
2023/04/02 02:10:06;;;;;;;;;;;;;;;5.84;100.00;95776.63;5036155;28;20387;-69
2023/04/02 02:12:32;;;;;;;;;;;;;;;5.85;100.00;95786.81;5035637;28;19972;-69
2023/04/02 02:14:58;;;;;;;;;;;;;;;5.86;100.00;95780.63;5036391;28;19952;-69
2023/04/02 02:17:29;;;;;;;;;;;;;;;5.88;100.00;95781.22;5035522;28;19958;-69
2023/04/02 02:19:57;;;;;;;;;;;;;;;5.89;100.00;95785.41;5036303;28;19943;-73
2023/04/02 02:22:23;;;;;;;;;;;;;;;5.92;100.00;95788.59;5035461;28;20428;-69
2023/04/02 02:24:49;;;;;;;;;;;;;;;5.93;100.00;95792.81;5035327;28;19971;-67
2023/04/02 02:27:24;;;;;;;;;;;;;;;5.93;100.00;95793.63;5035307;28;20007;-66
2023/04/02 02:29:55;;;;;;;;;;;;;;;5.94;100.00;95792.59;5035236;28;20315;-67
2023/04/02 02:32:25;;;;;;;;;;;;;;;5.96;100.00;95800.25;5035825;28;19945;-66
2023/04/02 02:34:58;;;;;;;;;;;;;;;5.97;100.00;95797.44;5035167;28;19946;-68
2023/04/02 02:37:28;;;;;;;;;;;;;;;5.98;100.00;95793.81;5035718;28;20344;-66
2023/04/02 02:39:56;;;;;;;;;;;;;;;6.00;100.00;95797.00;5035101;28;19945;-71
2023/04/02 02:42:32;;;;;;;;;;;;;;;6.01;100.00;95796.03;5034936;28;19968;-74
2023/04/02 02:45:00;;;;;;;;;;;;;;;6.02;100.00;95796.81;5035724;28;19961;-74
2023/04/02 02:47:33;;;;;;;;;;;;;;;6.01;100.00;95796.03;5034856;28;19948;-73
2023/04/02 02:50:02;;;;;;;;;;;;;;;6.02;100.00;95794.22;5035033;28;19934;-73
2023/04/02 02:52:30;;;;;;;;;;;;;;;6.03;100.00;95794.03;5034836;28;19947;-73
2023/04/02 02:55:00;;;;;;;;;;;;;;;6.04;100.00;95789.59;5034717;28;19944;-74
2023/04/02 02:57:29;;;;;;;;;;;;;;;6.06;100.00;95792.81;5035618;28;19971;-78
2023/04/02 02:59:56;;;;;;;;;;;;;;;6.07;100.00;95804.84;5034683;28;19939;-70
2023/04/02 03:02:23;;;;;;;;;;;;;;;6.08;100.00;95802.00;5034589;28;19953;-70
2023/04/02 03:04:51;;;;;;;;;;;;;;;6.09;100.00;95801.00;5034537;28;19962;-70
2023/04/02 03:07:20;;;;;;;;;;;;;;;6.10;100.00;95801.81;5034520;28;19954;-70
2023/04/02 03:09:46;;;;;;;;;;;;;;;6.11;100.00;95813.84;5034837;28;19946;-69
2023/04/02 03:12:18;;;;;;;;;;;;;;;6.11;100.00;95819.03;5034917;28;20459;-70
2023/04/02 03:15:07;;;;;;;;;;;;;;;6.12;100.00;95823.22;5034951;28;20389;-70
2023/04/02 03:17:38;;;;;;;;;;;;;;;6.13;100.00;95821.41;5034461;28;19950;-66
2023/04/02 03:20:14;;;;;;;;;;;;;;;6.12;100.00;95823.22;5034864;28;19941;-72
2023/04/02 03:22:45;;;;;;;;;;;;;;;6.14;100.00;95829.03;5035292;28;19938;-72
2023/04/02 03:25:26;;;;;;;;;;;;;;;6.15;100.00;95830.59;5034420;28;19958;-71
2023/04/02 03:27:55;;;;;;;;;;;;;;;6.17;100.00;95838.22;5034150;28;19939;-72
2023/04/02 03:30:26;;;;;;;;;;;;;;;6.17;100.00;95835.63;5034051;28;19956;-72
2023/04/02 03:32:56;;;;;;;;;;;;;;;6.17;100.00;95836.41;5034870;28;19943;-71
2023/04/02 03:35:32;;;;;;;;;;;;;;;6.18;100.00;95835.41;5034063;28;19949;-74
2023/04/02 03:38:05;;;;;;;;;;;;;;;6.18;100.00;95832.81;5034593;28;19948;-66
2023/04/02 03:40:34;;;;;;;;;;;;;;;6.20;100.00;95843.03;5033918;28;20305;-65
2023/04/02 03:43:11;;;;;;;;;;;;;;;6.19;100.00;95846.63;5033978;28;19942;-66
2023/04/02 03:45:39;;;;;;;;;;;;;;;6.20;100.00;95843.81;5034731;28;19971;-66
2023/04/02 03:48:12;;;;;;;;;;;;;;;6.21;100.00;95848.03;5034157;28;19948;-66
2023/04/02 03:50:41;;;;;;;;;;;;;;;6.22;100.00;95847.03;5034386;28;19966;-66
2023/04/02 03:53:07;;;;;;;;;;;;;;;6.21;100.00;95849.81;5033919;28;19952;-74
2023/04/02 03:55:37;;;;;;;;;;;;;;;6.22;100.00;95848.84;5033806;28;19947;-72
2023/04/02 03:58:06;;;;;;;;;;;;;;;6.20;100.00;95853.44;5033680;28;19939;-70
2023/04/02 04:00:40;;;;;;;;;;;;;;;6.20;100.00;95854.25;5033669;28;19942;-72
2023/04/02 04:03:32;;;;;;;;;;;;;;;6.21;100.00;95863.63;5034454;28;20315;-71
2023/04/02 04:06:00;;;;;;;;;;;;;;;6.21;100.00;95862.84;5018160;28;20338;-72
2023/04/02 04:08:36;;;;;;;;;;;;;;;6.22;100.00;95865.25;5033632;28;19970;-72
2023/04/02 04:11:07;;;;;;;;;;;;;;;6.22;100.00;95867.06;5033631;28;19954;-79
2023/04/02 04:13:38;;;;;;;;;;;;;;;6.23;100.00;95873.84;5033605;28;19978;-72
2023/04/02 04:16:06;;;;;;;;;;;;;;;6.22;100.00;95867.06;5034341;28;19945;-71
2023/04/02 04:18:50;;;;;;;;;;;;;;;6.22;100.00;95874.88;5033508;28;19944;-71
2023/04/02 04:21:35;;;;;;;;;;;;;;;6.24;100.00;95880.69;5033496;28;19941;-71
2023/04/02 04:24:03;;;;;;;;;;;;;;;6.24;100.00;95886.69;5034133;28;19964;-71
2023/04/02 04:26:38;;;;;;;;;;;;;;;6.25;100.00;95884.88;5033484;28;20314;-70
2023/04/02 04:29:11;;;;;;;;;;;;;;;6.27;100.00;95882.84;5033527;28;19947;-70
2023/04/02 04:31:45;;;;;;;;;;;;;;;6.26;100.00;95886.47;5037324;28;19947;-70
2023/04/02 04:34:37;;;;;;;;;;;;;;;6.28;100.00;95892.28;5037467;28;19937;-70
2023/04/02 04:37:06;;;;;;;;;;;;;;;6.28;100.00;95893.06;5031869;28;19968;-70
2023/04/02 04:39:33;;;;;;;;;;;;;;;6.29;100.00;95899.09;5037439;28;19943;-70
2023/04/02 04:42:00;;;;;;;;;;;;;;;6.29;100.00;95905.09;5037325;28;19940;-71
2023/04/02 04:44:45;;;;;;;;;;;;;;;6.30;100.00;95901.50;5037284;28;19958;-69
2023/04/02 04:47:16;;;;;;;;;;;;;;;6.32;100.00;95906.50;5036856;28;19950;-70
2023/04/02 04:49:55;;;;;;;;;;;;;;;6.30;100.00;95909.31;5037145;28;20331;-65
2023/04/02 04:52:47;;;;;;;;;;;;;;;6.26;100.00;95905.50;5037648;28;19939;-66
2023/04/02 04:55:19;;;;;;;;;;;;;;;6.26;100.00;95908.09;5034879;28;19947;-66
2023/04/02 04:57:47;;;;;;;;;;;;;;;6.27;100.00;95906.28;5037702;28;19951;-66
2023/04/02 05:00:26;;;;;;;;;;;;;;;6.27;100.00;95909.69;5037398;28;20291;-66
2023/04/02 05:03:12;;;;;;;;;;;;;;;6.30;100.00;95918.94;5036883;28;19935;-66
2023/04/02 05:05:39;;;;;;;;;;;;;;;6.31;100.00;95920.50;5036780;28;19967;-73
2023/04/02 05:08:24;;;;;;;;;;;;;;;6.32;100.00;95931.72;5036813;28;19966;-70
2023/04/02 05:10:56;;;;;;;;;;;;;;;6.34;100.00;95927.09;5036699;28;19942;-73
2023/04/02 05:13:41;;;;;;;;;;;;;;;6.33;100.00;95922.91;5036532;28;20340;-74
2023/04/02 05:16:15;;;;;;;;;;;;;;;6.34;100.00;95932.31;5036573;28;19952;-74
2023/04/02 05:18:49;;;;;;;;;;;;;;;6.33;100.00;95931.53;5037160;28;19945;-73
2023/04/02 05:21:21;;;;;;;;;;;;;;;6.36;100.00;95940.72;5037073;28;19945;-74
2023/04/02 05:23:53;;;;;;;;;;;;;;;6.37;100.00;95931.94;5035647;28;19949;-69
2023/04/02 05:26:31;;;;;;;;;;;;;;;6.38;100.00;95949.13;5036453;28;19973;-66
2023/04/02 05:29:10;;;;;;;;;;;;;;;6.39;100.00;95945.53;5037050;28;20313;-70
2023/04/02 05:31:39;;;;;;;;;;;;;;;6.38;100.00;95944.72;5037226;28;19937;-70
2023/04/02 05:34:05;;;;;;;;;;;;;;;6.40;100.00;95947.94;5036344;28;19941;-70
2023/04/02 05:36:31;;;;;;;;;;;;;;;6.40;100.00;95953.13;5036860;28;20011;-69
2023/04/02 05:38:58;;;;;;;;;;;;;;;6.43;100.00;95952.75;5036275;28;19943;-70
2023/04/02 05:41:25;;;;;;;;;;;;;;;6.45;100.00;95958.53;5035952;28;20008;-68
2023/04/02 05:44:02;;;;;;;;;;;;;;;6.46;100.00;95962.75;5036511;28;19951;-79
2023/04/02 05:46:31;;;;;;;;;;;;;;;6.47;100.00;95963.56;5036146;28;19952;-73
2023/04/02 05:48:58;;;;;;;;;;;;;;;6.48;100.00;95960.72;5036041;28;20399;-74
2023/04/02 05:51:34;;;;;;;;;;;;;;;6.49;100.00;95961.56;5036813;28;19946;-73
2023/04/02 05:54:02;;;;;;;;;;;;;;;6.51;100.00;95964.75;5035924;28;19944;-74
2023/04/02 05:56:36;;;;;;;;;;;;;;;6.50;100.00;95968.34;5035890;28;19943;-74
2023/04/02 05:59:07;;;;;;;;;;;;;;;6.46;100.00;95975.75;5036692;28;19946;-73
2023/04/02 06:01:36;;;;;;;;;;;;;;;6.44;100.00;95977.78;5018816;28;19953;-70
2023/04/02 06:04:40;;;;;;;;;;;;;;;6.48;100.00;95978.19;5035729;28;19946;-70
2023/04/02 06:07:19;;;;;;;;;;;;;;;6.46;100.00;95983.56;4994350;28;20477;-70
2023/04/02 06:09:51;;;;;;;;;;;;;;;6.45;100.00;95989.00;4994196;28;19945;-70
2023/04/02 06:12:21;;;;;;;;;;;;;;;6.43;100.00;95988.41;5018423;28;19972;-70
2023/04/02 06:14:47;;;;;;;;;;;;;;;6.43;100.00;95993.63;5035857;28;19945;-70
2023/04/02 06:17:15;;;;;;;;;;;;;;;6.47;100.00;96002.63;5035522;28;19944;-70
2023/04/02 06:19:41;;;;;;;;;;;;;;;6.56;100.00;96004.00;5036081;28;20413;-80
2023/04/02 06:22:17;;;;;;;;;;;;;;;6.62;100.00;96002.41;5036216;28;19943;-66
2023/04/02 06:24:44;;;;;;;;;;;;;;;6.67;100.00;96000.78;5035887;28;19964;-66
2023/04/02 06:27:13;;;;;;;;;;;;;;;6.70;100.00;96000.38;5035389;28;19948;-66
2023/04/02 06:29:41;;;;;;;;;;;;;;;6.73;100.00;96003.59;5017699;28;20491;-65
2023/04/02 06:32:09;;;;;;;;;;;;;;;6.73;100.00;96003.59;5036055;28;19953;-66
2023/04/02 06:34:36;;;;;;;;;;;;;;;6.73;100.00;96014.81;5035228;28;19949;-66
2023/04/02 06:37:28;;;;;;;;;;;;;;;6.75;100.00;96015.41;5035357;28;19969;-73
2023/04/02 06:39:55;;;;;;;;;;;;;;;6.78;100.00;96012.38;5033226;28;19949;-70
2023/04/02 06:42:32;;;;;;;;;;;;;;;6.80;100.00;96012.97;5035879;28;19939;-70
2023/04/02 06:44:59;;;;;;;;;;;;;;;6.85;100.00;96017.59;5035770;28;19963;-70
2023/04/02 06:47:33;;;;;;;;;;;;;;;6.91;100.00;96025.38;5034733;28;19948;-70
2023/04/02 06:50:03;;;;;;;;;;;;;;;6.92;100.00;96018.38;5034776;28;19941;-70
2023/04/02 06:52:29;;;;;;;;;;;;;;;6.87;100.00;96028.63;5034207;28;19951;-70
2023/04/02 06:54:56;;;;;;;;;;;;;;;6.88;100.00;96036.22;5035488;28;19942;-71
2023/04/02 06:57:22;;;;;;;;;;;;;;;6.95;100.00;96044.03;5034722;28;20325;-79
2023/04/02 06:59:48;;;;;;;;;;;;;;;7.00;100.00;96049.41;5034650;28;20040;-72
2023/04/02 07:02:22;;;;;;;;;;;;;;;7.05;100.00;96046.19;5034467;28;19977;-71
2023/04/02 07:04:48;;;;;;;;;;;;;;;7.10;100.00;96047.19;5034420;28;19970;-72
2023/04/02 07:07:14;;;;;;;;;;;;;;;7.17;100.00;96055.00;5034343;28;19940;-71
2023/04/02 07:09:41;;;;;;;;;;;;;;;7.23;100.00;96053.38;5035246;28;19942;-72
2023/04/02 07:12:13;;;;;;;;;;;;;;;7.30;100.00;96062.75;5034122;28;19969;-72
2023/04/02 07:14:38;;;;;;;;;;;;;;;7.35;100.00;96056.94;5034218;28;20410;-80
2023/04/02 07:17:04;;;;;;;;;;;;;;;7.39;100.00;96060.75;5034391;28;19997;-66
2023/04/02 07:19:30;;;;;;;;;;;;;;;7.45;100.00;96062.50;5034912;28;20388;-71
2023/04/02 07:21:56;;;;;;;;;;;;;;;7.50;100.00;96069.72;5034322;28;19937;-72
2023/04/02 07:24:22;;;;;;;;;;;;;;;7.55;100.00;96071.72;5034126;28;19943;-71
2023/04/02 07:26:48;;;;;;;;;;;;;;;7.59;100.00;96078.13;5034268;28;20440;-72
2023/04/02 07:29:14;;;;;;;;;;;;;;;7.65;100.00;96077.28;5034870;28;19939;-71
2023/04/02 07:31:40;;;;;;;;;;;;;;;7.66;100.00;96081.47;5034189;28;20314;-72
2023/04/02 07:34:06;;;;;;;;;;;;;;;7.67;100.00;96085.72;5034241;28;19948;-67
2023/04/02 07:36:32;;;;;;;;;;;;;;;7.68;100.00;96093.31;5033967;28;19959;-66
2023/04/02 07:38:58;;;;;;;;;;;;;;;7.69;100.00;96084.47;5033995;28;20042;-67
2023/04/02 07:41:25;;;;;;;;;;;;;;;7.67;100.00;96094.31;5033923;28;19941;-66
2023/04/02 07:43:51;;;;;;;;;;;;;;;7.67;100.00;96101.38;5034370;28;19971;-66
2023/04/02 07:46:18;;;;;;;;;;;;;;;7.66;100.00;96095.31;5033750;28;20418;-66
2023/04/02 07:48:45;;;;;;;;;;;;;;;7.69;100.00;96099.34;5033704;28;19943;-66
2023/04/02 07:51:15;;;;;;;;;;;;;;;7.69;100.00;96102.75;5034463;28;19940;-70
2023/04/02 07:53:41;;;;;;;;;;;;;;;7.64;100.00;96099.97;5016042;28;19956;-70
2023/04/02 07:56:07;;;;;;;;;;;;;;;7.66;100.00;96113.59;5033601;28;19948;-73
2023/04/02 07:58:33;;;;;;;;;;;;;;;7.66;100.00;96118.81;5033587;28;19942;-74
2023/04/02 08:01:00;;;;;;;;;;;;;;;7.65;100.00;96117.22;5033603;28;19982;-73
2023/04/02 08:03:26;;;;;;;;;;;;;;;7.66;100.00;96120.63;5033288;28;20349;-73
2023/04/02 08:05:53;;;;;;;;;;;;;;;7.67;100.00;96122.25;5033521;28;19958;-73
2023/04/02 08:08:20;;;;;;;;;;;;;;;7.69;100.00;96123.63;5033486;28;20283;-72
2023/04/02 08:10:45;;;;;;;;;;;;;;;7.74;100.00;96128.22;5034139;28;19942;-66
2023/04/02 08:13:11;;;;;;;;;;;;;;;7.78;100.00;96131.22;5033755;28;19976;-73
2023/04/02 08:15:38;;;;;;;;;;;;;;;7.80;100.00;96127.41;5034281;28;19950;-74
2023/04/02 08:18:04;;;;;;;;;;;;;;;7.84;100.00;96135.63;5033461;28;19944;-73
2023/04/02 08:20:30;;;;;;;;;;;;;;;7.86;100.00;96139.63;5033524;28;19968;-73
2023/04/02 08:22:57;;;;;;;;;;;;;;;7.90;100.00;96140.00;5033501;28;19942;-76
2023/04/02 08:25:23;;;;;;;;;;;;;;;7.91;100.00;96134.56;5033301;28;20003;-73
2023/04/02 08:27:48;;;;;;;;;;;;;;;7.96;100.00;96133.97;5033493;28;20319;-71
2023/04/02 08:30:15;;;;;;;;;;;;;;;8.01;100.00;96155.00;5034028;28;19945;-72
2023/04/02 08:32:41;;;;;;;;;;;;;;;8.07;100.00;96148.16;5033451;28;20327;-72
2023/04/02 08:35:08;;;;;;;;;;;;;;;8.11;100.00;96154.56;5033254;28;19946;-71
2023/04/02 08:37:34;;;;;;;;;;;;;;;8.14;100.00;96162.78;5033537;28;19963;-72
2023/04/02 08:40:00;;;;;;;;;;;;;;;8.16;100.00;96159.97;5033837;28;19954;-72
2023/04/02 08:42:39;;;;;;;;;;;;;;;8.22;100.00;96164.34;5033591;28;19945;-72
2023/04/02 08:45:18;;;;;;;;;;;;;;;8.23;100.00;96170.38;5033991;28;20320;-71
2023/04/02 08:47:46;;;;;;;;;;;;;;;8.31;100.00;96175.34;5034151;28;19957;-66
2023/04/02 08:50:18;;;;;;;;;;;;;;;8.40;100.00;96173.28;5033260;28;19959;-73
2023/04/02 08:52:44;;;;;;;;;;;;;;;8.45;100.00;96173.50;5034105;28;19949;-73
2023/04/02 08:55:17;;;;;;;;;;;;;;;8.49;100.00;96157.19;5033686;28;19951;-73
2023/04/02 08:57:51;;;;;;;;;;;;;;;8.50;100.00;96176.25;5033493;28;20335;-73
2023/04/02 09:00:43;;;;;;;;;;;;;;;8.59;100.00;96184.66;5033972;28;19937;-75
2023/04/02 09:03:12;;;;;;;;;;;;;;;8.70;100.00;96187.41;5031103;28;20393;-73
2023/04/02 09:05:41;;;;;;;;;;;;;;;8.78;100.00;96181.13;5033602;28;19961;-67
2023/04/02 09:08:15;;;;;;;;;;;;;;;8.82;100.00;96187.53;5033189;28;19946;-71
2023/04/02 09:11:01;;;;;;;;;;;;;;;8.88;100.00;96185.84;5032429;28;20131;-71
2023/04/02 09:13:28;;;;;;;;;;;;;;;8.88;100.00;96183.22;5032926;28;19974;-72
2023/04/02 09:16:14;;;;;;;;;;;;;;;8.85;99.53;96184.47;5034046;28;19953;-71
2023/04/02 09:18:42;;;;;;;;;;;;;;;8.86;100.00;96195.72;5036565;28;19965;-71
2023/04/02 09:21:19;;;;;;;;;;;;;;;8.82;98.89;96197.97;5036673;28;19939;-71
2023/04/02 09:23:46;;;;;;;;;;;;;;;8.83;100.00;96209.22;5036633;28;19951;-72
2023/04/02 09:26:28;;;;;;;;;;;;;;;8.86;100.00;96199.16;5036448;28;19963;-67
2023/04/02 09:28:59;;;;;;;;;;;;;;;8.93;99.13;96204.34;5036539;28;20426;-67
2023/04/02 09:31:29;;;;;;;;;;;;;;;8.97;98.24;96204.72;5037065;28;20402;-67
2023/04/02 09:33:55;;;;;;;;;;;;;;;9.01;98.36;96211.91;5037286;28;19942;-67
2023/04/02 09:36:27;;;;;;;;;;;;;;;9.02;98.85;96218.72;5036803;28;20003;-67
2023/04/02 09:39:00;;;;;;;;;;;;;;;9.09;97.33;96210.84;5036613;28;20000;-67
2023/04/02 09:41:28;;;;;;;;;;;;;;;9.20;99.34;96230.25;5036606;28;19945;-71
2023/04/02 09:44:12;;;;;;;;;;;;;;;9.30;97.55;96220.94;5036890;28;19943;-70
2023/04/02 09:47:02;;;;;;;;;;;;;;;9.40;93.15;96202.09;5036066;28;19964;-76
2023/04/02 09:49:29;;;;;;;;;;;;;;;9.45;92.36;96198.84;5036160;28;19955;-76
2023/04/02 09:52:16;;;;;;;;;;;;;;;9.43;92.98;96199.06;5036142;28;19956;-76
2023/04/02 09:54:43;;;;;;;;;;;;;;;9.45;93.66;96212.75;5036590;28;19945;-75
2023/04/02 09:57:22;;;;;;;;;;;;;;;9.48;95.20;96229.81;5035931;28;19944;-75
2023/04/02 10:00:07;;;;;;;;;;;;;;;9.50;94.09;96219.94;5036227;28;19945;-70
2023/04/02 10:02:33;;;;;;;;;;;;;;;9.51;96.06;96232.00;5035889;28;19949;-75
2023/04/02 10:05:02;;;;;;;;;;;;;;;9.54;94.63;96229.75;5036655;28;20377;-67
2023/04/02 10:07:30;;;;;;;;;;;;;;;9.60;94.08;96235.16;5035786;28;19940;-67
2023/04/02 10:09:57;;;;;;;;;;;;;;;9.63;93.21;96227.66;5035797;28;19940;-67
2023/04/02 10:12:24;;;;;;;;;;;;;;;9.65;93.94;96236.09;5036143;28;19978;-68
2023/04/02 10:14:51;;;;;;;;;;;;;;;9.68;93.14;96232.25;5035708;28;19952;-66
2023/04/02 10:17:20;;;;;;;;;;;;;;;9.72;92.76;96234.22;5017978;28;19953;-67
2023/04/02 10:19:49;;;;;;;;;;;;;;;9.80;92.79;96237.56;5035643;28;19960;-73
2023/04/02 10:22:16;;;;;;;;;;;;;;;9.83;92.56;96240.56;5035421;28;20416;-68
2023/04/02 10:24:42;;;;;;;;;;;;;;;9.85;90.81;96224.59;5035415;28;19946;-68
2023/04/02 10:27:28;;;;;;;;;;;;;;;9.88;90.34;96229.41;5035006;28;20401;-67
2023/04/02 10:30:26;;;;;;;;;;;;;;;9.89;91.35;96244.94;5035908;28;19944;-68
2023/04/02 10:32:59;;;;;;;;;;;;;;;9.93;89.51;96230.38;5012806;28;20318;-68
2023/04/02 10:35:31;;;;;;;;;;;;;;;9.95;89.63;96230.97;5035704;28;19952;-68
2023/04/02 10:38:23;;;;;;;;;;;;;;;9.99;92.17;96254.88;5035127;28;19975;-68
2023/04/02 10:40:58;;;;;;;;;;;;;;;10.00;91.12;96242.59;5032507;28;19953;-75
2023/04/02 10:43:27;;;;;;;;;;;;;;;9.92;88.11;96233.22;5035095;28;19945;-75
2023/04/02 10:45:57;;;;;;;;;;;;;;;9.84;88.94;96252.63;5034996;28;19966;-75
2023/04/02 10:48:23;;;;;;;;;;;;;;;9.81;88.77;96239.19;5034938;28;20034;-75
2023/04/02 10:50:55;;;;;;;;;;;;;;;9.83;90.25;96253.66;5035814;28;20399;-75
2023/04/02 10:53:27;;;;;;;;;;;;;;;9.81;88.89;96252.28;5034903;28;20418;-75
2023/04/02 10:56:02;;;;;;;;;;;;;;;9.80;88.99;96254.06;5034908;28;19944;-71
2023/04/02 10:58:29;;;;;;;;;;;;;;;9.87;91.38;96277.56;5035476;28;19948;-68
2023/04/02 11:00:59;;;;;;;;;;;;;;;9.93;89.52;96263.59;5034948;28;19944;-68
2023/04/02 11:03:30;;;;;;;;;;;;;;;10.01;89.59;96262.53;5034673;28;19949;-69
2023/04/02 11:05:58;;;;;;;;;;;;;;;10.09;89.37;96263.03;5034630;28;19964;-68
2023/04/02 11:08:44;;;;;;;;;;;;;;;10.15;88.18;96256.91;5034610;28;20327;-69
2023/04/02 11:11:13;;;;;;;;;;;;;;;10.25;87.96;96259.03;5034228;28;19951;-68
2023/04/02 11:13:46;;;;;;;;;;;;;;;10.29;86.35;96246.25;5034417;28;20439;-72
2023/04/02 11:16:16;;;;;;;;;;;;;;;10.31;87.03;96252.94;5034724;28;19959;-71
2023/04/02 11:18:43;;;;;;;;;;;;;;;10.33;87.68;96263.19;5034532;28;19949;-71
2023/04/02 11:21:28;;;;;;;;;;;;;;;10.38;82.52;96213.53;5034341;28;20391;-71
2023/04/02 11:24:01;;;;;;;;;;;;;;;10.40;85.47;96250.03;5034907;28;20297;-70
2023/04/02 11:26:32;;;;;;;;;;;;;;;10.39;85.46;96251.81;5034227;28;19959;-71
2023/04/02 11:29:15;;;;;;;;;;;;;;;10.40;85.81;96263.13;5034873;28;19953;-70
2023/04/02 11:31:42;;;;;;;;;;;;;;;10.43;87.48;96279.19;5016462;28;19953;-72
2023/04/02 11:34:11;;;;;;;;;;;;;;;10.44;88.39;96288.66;5034202;28;19948;-72
2023/04/02 11:36:49;;;;;;;;;;;;;;;10.38;89.10;96297.41;5034079;28;20430;-68
2023/04/02 11:39:34;;;;;;;;;;;;;;;10.31;89.66;96302.75;5034382;28;19943;-67
2023/04/02 11:42:05;;;;;;;;;;;;;;;10.24;90.23;96307.22;5034545;28;19942;-69
2023/04/02 11:44:31;;;;;;;;;;;;;;;10.18;87.14;96286.31;5034025;28;19959;-68
2023/04/02 11:47:20;;;;;;;;;;;;;;;10.11;89.17;96304.75;5034180;28;19959;-68
2023/04/02 11:49:56;;;;;;;;;;;;;;;10.06;91.28;96318.50;5028498;28;19947;-67
2023/04/02 11:52:24;;;;;;;;;;;;;;;10.00;89.65;96308.09;5033882;28;20377;-69
2023/04/02 11:55:14;;;;;;;;;;;;;;;9.91;89.16;96311.00;5033901;28;19938;-72
2023/04/02 11:57:49;;;;;;;;;;;;;;;9.82;89.75;96314.09;5034706;28;19949;-72
2023/04/02 12:00:31;;;;;;;;;;;;;;;9.76;91.68;96334.09;5034380;28;19955;-72
2023/04/02 12:03:02;;;;;;;;;;;;;;;9.69;91.07;96330.72;5033807;28;19950;-72
2023/04/02 12:05:35;;;;;;;;;;;;;;;9.63;90.68;96329.75;5034034;28;19955;-72
2023/04/02 12:08:10;;;;;;;;;;;;;;;9.57;90.50;96328.00;5033707;28;20330;-73
2023/04/02 12:10:53;;;;;;;;;;;;;;;9.53;91.19;96335.50;5033976;28;19940;-71
2023/04/02 12:13:19;;;;;;;;;;;;;;;9.50;91.44;96348.22;5033578;28;20349;-72
2023/04/02 12:15:47;;;;;;;;;;;;;;;9.48;91.71;96353.66;5033555;28;19959;-72
2023/04/02 12:18:15;;;;;;;;;;;;;;;9.43;91.94;96350.88;5033458;28;19937;-72
2023/04/02 12:20:46;;;;;;;;;;;;;;;9.44;92.31;96355.09;5033553;28;19951;-72
2023/04/02 12:23:17;;;;;;;;;;;;;;;9.43;92.94;96353.50;5033484;28;19941;-72
2023/04/02 12:25:45;;;;;;;;;;;;;;;9.44;94.39;96365.56;5034223;28;19984;-72
2023/04/02 12:28:19;;;;;;;;;;;;;;;9.43;94.44;96361.34;5033709;28;20409;-73
2023/04/02 12:30:46;;;;;;;;;;;;;;;9.45;94.46;96364.56;5033707;28;19945;-72
2023/04/02 12:33:18;;;;;;;;;;;;;;;9.45;95.39;96372.41;5033337;28;19948;-72
2023/04/02 12:35:45;;;;;;;;;;;;;;;9.47;95.35;96374.78;5034008;28;19942;-71
2023/04/02 12:38:22;;;;;;;;;;;;;;;9.53;96.01;96376.56;5033309;28;19949;-72
2023/04/02 12:40:54;;;;;;;;;;;;;;;9.58;96.17;96381.97;5034130;28;20406;-71
2023/04/02 12:43:28;;;;;;;;;;;;;;;9.67;96.21;96382.50;5033321;28;19940;-73
2023/04/02 12:45:55;;;;;;;;;;;;;;;9.73;94.30;96376.44;5033208;28;19953;-72
2023/04/02 12:48:21;;;;;;;;;;;;;;;9.80;94.35;96377.16;5033311;28;19952;-72
2023/04/02 12:50:47;;;;;;;;;;;;;;;9.91;93.98;96386.13;5033990;28;19944;-72
2023/04/02 12:53:20;;;;;;;;;;;;;;;10.05;94.17;96382.38;5037170;28;19954;-72
2023/04/02 12:55:47;;;;;;;;;;;;;;;10.15;92.60;96379.28;5037095;28;20327;-72
2023/04/02 12:58:34;;;;;;;;;;;;;;;10.25;92.22;96378.78;5036992;28;19942;-72
2023/04/02 13:01:09;;;;;;;;;;;;;;;10.36;90.28;96360.53;5037018;28;20459;-72
2023/04/02 13:03:35;;;;;;;;;;;;;;;10.48;91.39;96378.19;5037768;28;19949;-72
2023/04/02 13:06:01;;;;;;;;;;;;;;;10.51;88.90;96364.63;5036751;28;19970;-72
2023/04/02 13:08:29;;;;;;;;;;;;;;;10.51;90.18;96375.91;5019208;28;19943;-71
2023/04/02 13:10:59;;;;;;;;;;;;;;;10.55;88.23;96350.06;5037483;28;19947;-71